Hauptseite
METAR-TAF:

METAR-TAF

Flughäfen :

Birmingham Airport

Birmingham, England

Breite: 52-27N, Länge: 001-44W, Höhe: 99 m

Beobachtung

Neuester Wetterbericht von vor 13 Minuten, um 13:20 UTC
Wind 7 kt aus West, variierte zwischen Südwest und West/Nordwest
Temperatur 20°C
Luftfeuchtigkeit 37%
Luftdruck 1015 hPa
Sichtweite 10 km oder mehr
keine Wolken unter 1500 m und keine Kumulonimbus oder Gewitterwolken

METAR: EGBB 231320Z 26007KT 220V300 CAVOK 20/05 Q1015

Zeit: 14:33 (13:33 UTC)

Prognose

Neuester Wetterbericht von vor 2 Stunden und 39 Minuten, um 10:54 UTC
Gültige Prognose vom 23 um 12 UTC bis 24 um 12 UTC
Wind 6 kt aus West
Sichtweite 10 km oder mehr
Leicht bewölkt in der Höhe von 4500 ft
Wahrscheinlichkeit 30% :
Zeitweise
vom 24 um 11 UTC bis 24 um 12 UTC
Sichtweite: 7000 m
Regenschauer

TAF: EGBB 231054Z 2312/2412 26006KT 9999 FEW045 PROB30 TEMPO 2411/2412 7000 SHRA

Wetterbeobachtungen und Prognosen von mehr als 4000 Flughäfen (METAR und TAF Bericht).

Die verfügbaren Stationen werden durch gelbe und rote Markierungen auf der Karte dargestellt.

Führen Sie die Maus auf sie, um den Namen der Station zu sehen.

Darauf klicken, um die Beobachtung von Wetterbeobachtungen und Prognosen zu sehen.

Um die Karte zu ändern : klicken Sie auf den grünen Tasten mit einem schwarzen Kreuz Zum Vergrößern, auf den grünen Button mit einem Gedankenstrich zu verkleinern, oder auf die grünen Pfeile für benachbarte Karten.


METAR-TAF: